Time,TemperatureF,DewpointF,PressureIn,WindDirection,WindDirectionDegrees,WindSpeedMPH,WindSpeedGustMPH,Humidity,HourlyPrecipIn,Conditions,Clouds,dailyrainin,SoftwareType,DateUTC
2013-06-27 00:01:00,70.5,68.4,29.83,SW,226,0.0,0.0,93,0.00,,,0.00,meteohub,2013-06-27 04:01:00,
2013-06-27 00:06:00,70.5,68.4,29.83,SW,226,0.0,0.0,93,0.00,,,0.00,meteohub,2013-06-27 04:06:00,
2013-06-27 00:11:00,70.3,68.2,29.83,SW,226,0.0,0.0,93,0.00,,,0.00,meteohub,2013-06-27 04:11:00,
2013-06-27 00:16:00,70.2,68.0,29.83,SW,226,0.0,0.0,93,0.00,,,0.00,meteohub,2013-06-27 04:16:00,
2013-06-27 00:21:00,70.2,68.0,29.83,SW,226,0.0,0.0,93,0.00,,,0.00,meteohub,2013-06-27 04:21:00,
2013-06-27 00:26:00,70.2,68.0,29.83,SW,226,0.0,0.0,93,0.00,,,0.00,meteohub,2013-06-27 04:26:00,
2013-06-27 00:31:00,70.0,67.8,29.83,SW,226,0.0,0.0,93,0.00,,,0.00,meteohub,2013-06-27 04:31:00,
2013-06-27 00:36:00,70.0,67.8,29.83,SW,226,0.0,0.0,93,0.00,,,0.00,meteohub,2013-06-27 04:36:00,
2013-06-27 00:41:00,69.8,67.6,29.83,SW,226,0.0,0.0,93,0.00,,,0.00,meteohub,2013-06-27 04:41:00,
2013-06-27 00:46:00,69.6,67.5,29.83,SW,226,0.0,0.0,93,0.00,,,0.00,meteohub,2013-06-27 04:46:00,
2013-06-27 00:52:00,69.6,67.5,29.83,SW,226,0.0,0.0,93,0.00,,,0.00,meteohub,2013-06-27 04:52:00,
2013-06-27 00:57:00,69.4,67.3,29.83,SW,226,0.0,0.0,93,0.00,,,0.00,meteohub,2013-06-27 04:57:00,
2013-06-27 01:02:00,69.3,67.1,29.82,SW,226,0.0,0.0,93,0.00,,,0.00,meteohub,2013-06-27 05:02:00,
2013-06-27 01:07:00,69.3,67.1,29.82,SW,226,0.0,0.0,93,0.00,,,0.00,meteohub,2013-06-27 05:07:00,
2013-06-27 01:12:00,69.1,66.9,29.83,SW,226,0.0,0.0,93,0.00,,,0.00,meteohub,2013-06-27 05:12:00,
2013-06-27 01:17:00,69.1,66.9,29.83,SW,226,0.0,0.0,93,0.00,,,0.00,meteohub,2013-06-27 05:17:00,
2013-06-27 01:22:00,68.9,67.1,29.83,SW,226,0.0,0.0,94,0.00,,,0.00,meteohub,2013-06-27 05:22:00,
2013-06-27 01:27:00,68.9,67.1,29.83,SW,226,0.0,0.0,94,0.00,,,0.00,meteohub,2013-06-27 05:27:00,
2013-06-27 01:32:00,68.7,66.9,29.83,SW,226,0.0,0.0,94,0.00,,,0.00,meteohub,2013-06-27 05:32:00,
2013-06-27 01:37:00,68.7,66.9,29.83,SW,226,0.0,0.0,94,0.00,,,0.00,meteohub,2013-06-27 05:37:00,
2013-06-27 01:42:00,68.5,66.4,29.82,SW,226,0.0,0.0,93,0.00,,,0.00,meteohub,2013-06-27 05:42:00,
2013-06-27 01:47:00,68.5,66.4,29.82,SW,226,0.0,0.0,93,0.00,,,0.00,meteohub,2013-06-27 05:47:00,
2013-06-27 01:52:00,68.5,66.7,29.82,SW,226,0.0,0.0,94,0.00,,,0.00,meteohub,2013-06-27 05:52:00,
2013-06-27 01:57:00,68.4,66.6,29.82,SW,226,0.0,0.0,94,0.00,,,0.00,meteohub,2013-06-27 05:57:00,
2013-06-27 02:02:00,68.4,66.6,29.81,SW,226,0.0,0.0,94,0.00,,,0.00,meteohub,2013-06-27 06:02:00,
2013-06-27 02:07:00,68.4,66.6,29.81,SW,226,0.0,0.0,94,0.00,,,0.00,meteohub,2013-06-27 06:07:00,
2013-06-27 02:12:00,68.4,66.6,29.81,SW,226,0.0,0.0,94,0.00,,,0.00,meteohub,2013-06-27 06:12:00,
2013-06-27 02:17:00,68.4,66.6,29.81,SW,226,0.0,0.0,94,0.00,,,0.00,meteohub,2013-06-27 06:17:00,
2013-06-27 02:22:00,68.4,66.6,29.81,SW,226,0.0,0.0,94,0.00,,,0.00,meteohub,2013-06-27 06:22:00,
2013-06-27 02:27:00,68.4,66.6,29.81,SW,226,0.0,0.0,94,0.00,,,0.00,meteohub,2013-06-27 06:27:00,
2013-06-27 02:32:00,68.2,66.4,29.81,SW,226,0.0,0.0,94,0.00,,,0.00,meteohub,2013-06-27 06:32:00,
2013-06-27 02:37:00,68.2,66.4,29.80,SW,226,0.0,0.0,94,0.00,,,0.00,meteohub,2013-06-27 06:37:00,
2013-06-27 02:42:00,68.2,66.4,29.80,SW,226,0.0,0.0,94,0.00,,,0.00,meteohub,2013-06-27 06:42:00,
2013-06-27 02:47:00,68.2,66.4,29.80,SW,226,0.0,0.0,94,0.00,,,0.00,meteohub,2013-06-27 06:47:00,
2013-06-27 02:52:00,68.2,66.4,29.80,SW,226,0.0,0.0,94,0.00,,,0.00,meteohub,2013-06-27 06:52:00,
2013-06-27 02:57:00,68.2,66.4,29.80,SW,226,0.0,0.0,94,0.00,,,0.00,meteohub,2013-06-27 06:57:00,
2013-06-27 03:02:00,68.0,66.2,29.80,SW,226,0.0,0.0,94,0.00,,,0.00,meteohub,2013-06-27 07:02:00,
2013-06-27 03:07:00,67.8,66.0,29.81,SW,226,0.0,0.0,94,0.00,,,0.00,meteohub,2013-06-27 07:07:00,
2013-06-27 03:12:00,67.8,66.0,29.80,SW,226,0.0,0.0,94,0.00,,,0.00,meteohub,2013-06-27 07:12:00,
2013-06-27 03:17:00,67.8,66.0,29.80,SW,226,0.0,0.0,94,0.00,,,0.00,meteohub,2013-06-27 07:17:00,
2013-06-27 03:22:00,67.8,66.0,29.79,North,355,0.0,2.0,94,0.00,,,0.00,meteohub,2013-06-27 07:22:00,
2013-06-27 03:27:00,67.8,66.0,29.79,North,355,0.0,2.0,94,0.00,,,0.00,meteohub,2013-06-27 07:27:00,
2013-06-27 03:32:00,67.6,65.8,29.79,North,355,0.0,2.0,94,0.00,,,0.00,meteohub,2013-06-27 07:32:00,
2013-06-27 03:37:00,67.6,65.8,29.79,North,355,0.0,0.0,94,0.00,,,0.00,meteohub,2013-06-27 07:37:00,
2013-06-27 03:42:00,67.6,65.8,29.79,North,355,0.0,0.0,94,0.00,,,0.00,meteohub,2013-06-27 07:42:00,
2013-06-27 03:47:00,67.6,66.2,29.79,North,355,0.0,0.0,95,0.00,,,0.00,meteohub,2013-06-27 07:47:00,
2013-06-27 03:52:00,67.6,66.2,29.80,North,355,0.0,0.0,95,0.00,,,0.00,meteohub,2013-06-27 07:52:00,
2013-06-27 03:57:00,67.6,66.2,29.80,North,355,0.0,0.0,95,0.00,,,0.00,meteohub,2013-06-27 07:57:00,
2013-06-27 04:02:00,67.6,66.2,29.79,North,355,0.0,0.0,95,0.00,,,0.00,meteohub,2013-06-27 08:02:00,
2013-06-27 04:07:00,67.5,66.0,29.79,North,355,0.0,0.0,95,0.00,,,0.00,meteohub,2013-06-27 08:07:00,
2013-06-27 04:12:00,67.5,66.0,29.79,North,355,0.0,0.0,95,0.00,,,0.00,meteohub,2013-06-27 08:12:00,
2013-06-27 04:17:00,67.5,66.0,29.79,North,355,0.0,0.0,95,0.00,,,0.00,meteohub,2013-06-27 08:17:00,
2013-06-27 04:22:00,67.5,65.7,29.79,North,355,0.0,0.0,94,0.00,,,0.00,meteohub,2013-06-27 08:22:00,
2013-06-27 04:27:00,67.3,65.8,29.80,North,355,0.0,0.0,95,0.00,,,0.00,meteohub,2013-06-27 08:27:00,
2013-06-27 04:32:00,67.3,65.8,29.80,North,355,0.0,0.0,95,0.00,,,0.00,meteohub,2013-06-27 08:32:00,
2013-06-27 04:37:00,67.3,65.8,29.80,North,355,0.0,0.0,95,0.00,,,0.00,meteohub,2013-06-27 08:37:00,
2013-06-27 04:42:00,67.3,65.8,29.80,North,355,0.0,0.0,95,0.00,,,0.00,meteohub,2013-06-27 08:42:00,
2013-06-27 04:47:00,67.1,65.3,29.80,North,355,0.0,0.0,94,0.00,,,0.00,meteohub,2013-06-27 08:47:00,
2013-06-27 04:52:00,67.1,65.7,29.80,North,355,0.0,0.0,95,0.00,,,0.00,meteohub,2013-06-27 08:52:00,
2013-06-27 04:57:00,66.9,65.5,29.80,North,355,0.0,0.0,95,0.00,,,0.00,meteohub,2013-06-27 08:57:00,
2013-06-27 05:02:00,66.7,65.3,29.80,North,355,0.0,0.0,95,0.00,,,0.00,meteohub,2013-06-27 09:02:00,
2013-06-27 05:07:00,66.7,65.3,29.81,North,355,0.0,0.0,95,0.00,,,0.00,meteohub,2013-06-27 09:07:00,
2013-06-27 05:12:00,66.7,65.3,29.81,North,355,0.0,0.0,95,0.00,,,0.00,meteohub,2013-06-27 09:12:00,
2013-06-27 05:17:00,66.7,65.3,29.81,North,355,0.0,0.0,95,0.00,,,0.00,meteohub,2013-06-27 09:17:00,
2013-06-27 05:22:00,66.7,65.3,29.81,North,355,0.0,0.0,95,0.00,,,0.00,meteohub,2013-06-27 09:22:00,
2013-06-27 05:27:00,66.7,65.3,29.82,North,355,0.0,0.0,95,0.00,,,0.00,meteohub,2013-06-27 09:27:00,
2013-06-27 05:32:00,66.7,65.3,29.82,North,355,0.0,0.0,95,0.00,,,0.00,meteohub,2013-06-27 09:32:00,
2013-06-27 05:37:00,66.7,65.3,29.82,North,355,0.0,0.0,95,0.00,,,0.00,meteohub,2013-06-27 09:37:00,
2013-06-27 05:42:00,66.7,65.3,29.82,NE,34,0.0,1.0,95,0.00,,,0.00,meteohub,2013-06-27 09:42:00,
2013-06-27 05:47:00,66.9,65.5,29.82,NE,34,1.0,3.0,95,0.00,,,0.00,meteohub,2013-06-27 09:47:00,
2013-06-27 05:52:00,66.9,65.5,29.82,NE,34,0.0,3.0,95,0.00,,,0.00,meteohub,2013-06-27 09:52:00,
2013-06-27 05:57:00,66.9,65.5,29.82,NE,34,0.0,1.0,95,0.00,,,0.00,meteohub,2013-06-27 09:57:00,
2013-06-27 06:02:00,66.9,65.7,29.82,NE,35,0.0,1.0,96,0.00,,,0.00,meteohub,2013-06-27 10:02:00,
2013-06-27 06:07:00,67.1,65.8,29.82,NE,34,0.0,1.0,96,0.00,,,0.00,meteohub,2013-06-27 10:07:00,
2013-06-27 06:12:00,67.1,65.8,29.82,NE,35,0.0,0.0,96,0.00,,,0.00,meteohub,2013-06-27 10:12:00,
2013-06-27 06:17:00,67.3,66.0,29.82,NE,34,0.0,2.0,96,0.00,,,0.00,meteohub,2013-06-27 10:17:00,
2013-06-27 06:22:00,67.3,65.8,29.82,NE,34,0.0,2.0,95,0.00,,,0.00,meteohub,2013-06-27 10:22:00,
2013-06-27 06:27:00,67.3,66.0,29.82,NE,34,0.0,2.0,96,0.00,,,0.00,meteohub,2013-06-27 10:27:00,
2013-06-27 06:32:00,67.3,66.0,29.83,NE,34,0.0,2.0,96,0.00,,,0.00,meteohub,2013-06-27 10:32:00,
2013-06-27 06:37:00,67.5,66.2,29.83,NE,34,0.0,2.0,96,0.00,,,0.00,meteohub,2013-06-27 10:37:00,
2013-06-27 06:42:00,67.5,66.2,29.83,NE,34,0.0,2.0,96,0.00,,,0.00,meteohub,2013-06-27 10:42:00,
2013-06-27 06:47:00,67.5,66.2,29.83,NE,34,0.0,1.0,96,0.00,,,0.00,meteohub,2013-06-27 10:47:00,
2013-06-27 06:52:00,67.5,66.2,29.83,NE,34,0.0,1.0,96,0.00,,,0.00,meteohub,2013-06-27 10:52:00,
2013-06-27 07:00:00,67.6,66.4,29.83,NNE,20,1.0,1.0,96,0.00,,,0.00,meteohub,2013-06-27 11:00:00,
2013-06-27 07:05:00,67.6,66.4,29.84,NNE,21,0.0,0.0,96,0.00,,,0.00,meteohub,2013-06-27 11:05:00,
2013-06-27 07:10:00,67.6,66.4,29.84,NNE,21,0.0,1.0,96,0.00,,,0.00,meteohub,2013-06-27 11:10:00,
2013-06-27 07:15:00,67.8,66.6,29.85,NNE,21,0.0,1.0,96,0.00,,,0.00,meteohub,2013-06-27 11:15:00,
2013-06-27 07:20:00,67.8,66.6,29.84,NNE,21,0.0,0.0,96,0.00,,,0.00,meteohub,2013-06-27 11:20:00,
2013-06-27 07:58:00,68.2,66.9,29.83,NNE,21,0.0,0.0,96,0.00,,,0.00,meteohub,2013-06-27 11:58:00,
2013-06-27 08:03:00,68.2,66.9,29.84,NNE,21,0.0,0.0,96,0.00,,,0.00,meteohub,2013-06-27 12:03:00,
2013-06-27 08:08:00,68.4,67.1,29.83,NNE,21,0.0,0.0,96,0.00,,,0.00,meteohub,2013-06-27 12:08:00,
2013-06-27 08:13:00,68.4,67.1,29.83,NNE,21,0.0,0.0,96,0.00,,,0.00,meteohub,2013-06-27 12:13:00,
2013-06-27 08:18:00,68.5,67.3,29.83,NNE,21,0.0,0.0,96,0.00,,,0.00,meteohub,2013-06-27 12:18:00,
2013-06-27 08:23:00,68.5,67.3,29.83,NNE,21,0.0,0.0,96,0.00,,,0.00,meteohub,2013-06-27 12:23:00,
2013-06-27 08:28:00,68.7,67.5,29.83,NNE,21,0.0,0.0,96,0.00,,,0.00,meteohub,2013-06-27 12:28:00,
2013-06-27 08:33:00,68.7,67.5,29.83,NNE,21,0.0,0.0,96,0.00,,,0.00,meteohub,2013-06-27 12:33:00,
2013-06-27 08:38:00,68.9,67.6,29.83,NNE,21,0.0,0.0,96,0.00,,,0.00,meteohub,2013-06-27 12:38:00,
2013-06-27 08:43:00,69.1,67.8,29.83,NNE,21,0.0,0.0,96,0.00,,,0.00,meteohub,2013-06-27 12:43:00,
2013-06-27 08:48:00,69.1,67.8,29.82,NNE,21,0.0,0.0,96,0.00,,,0.00,meteohub,2013-06-27 12:48:00,
2013-06-27 08:53:00,69.1,67.8,29.82,NNE,21,0.0,0.0,96,0.00,,,0.00,meteohub,2013-06-27 12:53:00,
2013-06-27 08:58:00,69.3,68.0,29.82,NNE,21,0.0,0.0,96,0.00,,,0.00,meteohub,2013-06-27 12:58:00,
2013-06-27 09:03:00,69.4,68.2,29.82,NNE,21,0.0,0.0,96,0.00,,,0.00,meteohub,2013-06-27 13:03:00,
2013-06-27 09:08:00,69.4,68.2,29.82,NNE,21,0.0,0.0,96,0.00,,,0.00,meteohub,2013-06-27 13:08:00,
2013-06-27 09:13:00,69.6,68.4,29.82,NNE,21,0.0,0.0,96,0.00,,,0.00,meteohub,2013-06-27 13:13:00,
2013-06-27 09:18:00,69.8,68.5,29.82,NNE,21,0.0,1.0,96,0.00,,,0.00,meteohub,2013-06-27 13:18:00,
2013-06-27 09:23:00,70.0,68.7,29.82,West,263,0.0,1.0,96,0.00,,,0.00,meteohub,2013-06-27 13:23:00,
2013-06-27 09:28:00,70.0,68.7,29.82,West,263,0.0,1.0,96,0.00,,,0.00,meteohub,2013-06-27 13:28:00,
2013-06-27 09:33:00,70.2,68.9,29.82,West,263,0.0,1.0,96,0.00,,,0.00,meteohub,2013-06-27 13:33:00,
2013-06-27 09:38:00,70.2,68.9,29.82,West,263,0.0,1.0,96,0.00,,,0.00,meteohub,2013-06-27 13:38:00,
2013-06-27 09:43:00,70.3,69.1,29.82,West,263,0.0,1.0,96,0.00,,,0.00,meteohub,2013-06-27 13:43:00,
2013-06-27 09:48:00,70.3,69.1,29.82,West,263,0.0,0.0,96,0.00,,,0.00,meteohub,2013-06-27 13:48:00,
2013-06-27 09:53:00,70.5,69.3,29.82,West,263,0.0,0.0,96,0.00,,,0.00,meteohub,2013-06-27 13:53:00,
2013-06-27 09:58:00,70.5,69.1,29.82,SW,218,0.0,0.0,95,0.00,,,0.00,meteohub,2013-06-27 13:58:00,
2013-06-27 10:03:00,70.7,69.3,29.82,SW,218,0.0,2.0,95,0.00,,,0.00,meteohub,2013-06-27 14:03:00,
2013-06-27 10:08:00,70.9,69.4,29.82,SSW,200,0.0,2.0,95,0.00,,,0.00,meteohub,2013-06-27 14:08:00,
2013-06-27 10:13:00,70.9,69.4,29.81,SSW,200,0.0,2.0,95,0.00,,,0.00,meteohub,2013-06-27 14:13:00,
2013-06-27 10:18:00,71.1,69.6,29.81,SSW,200,0.0,1.0,95,0.00,,,0.00,meteohub,2013-06-27 14:18:00,
2013-06-27 10:23:00,71.2,69.4,29.81,SSW,200,0.0,1.0,94,0.00,,,0.00,meteohub,2013-06-27 14:23:00,
2013-06-27 10:29:00,71.2,69.4,29.81,SSW,200,0.0,1.0,94,0.00,,,0.00,meteohub,2013-06-27 14:29:00,
2013-06-27 10:34:00,71.2,69.1,29.81,SSW,200,0.0,1.0,93,0.00,,,0.00,meteohub,2013-06-27 14:34:00,
2013-06-27 10:39:00,71.4,69.3,29.81,NE,40,0.0,1.0,93,0.00,,,0.00,meteohub,2013-06-27 14:39:00,
2013-06-27 10:44:00,71.4,69.3,29.81,NE,40,0.0,1.0,93,0.00,,,0.00,meteohub,2013-06-27 14:44:00,
2013-06-27 10:49:00,71.6,69.4,29.81,NE,40,0.0,3.0,93,0.00,,,0.00,meteohub,2013-06-27 14:49:00,
2013-06-27 10:54:00,71.8,69.6,29.81,NE,40,0.0,3.0,93,0.00,,,0.00,meteohub,2013-06-27 14:54:00,
2013-06-27 10:59:00,72.0,69.4,29.81,NE,40,0.0,0.0,92,0.00,,,0.00,meteohub,2013-06-27 14:59:00,
2013-06-27 11:04:00,72.0,69.4,29.81,NE,40,0.0,0.0,92,0.00,,,0.00,meteohub,2013-06-27 15:04:00,
2013-06-27 11:09:00,72.1,69.6,29.81,NE,40,0.0,0.0,92,0.00,,,0.00,meteohub,2013-06-27 15:09:00,
2013-06-27 11:14:00,72.1,69.6,29.81,NE,40,0.0,1.0,92,0.00,,,0.00,meteohub,2013-06-27 15:14:00,
2013-06-27 11:19:00,72.3,69.8,29.81,NE,40,0.0,1.0,92,0.00,,,0.00,meteohub,2013-06-27 15:19:00,
2013-06-27 11:24:00,72.5,70.0,29.81,NE,40,0.0,1.0,92,0.00,,,0.00,meteohub,2013-06-27 15:24:00,
2013-06-27 11:29:00,72.9,70.2,29.81,NE,40,0.0,0.0,91,0.00,,,0.00,meteohub,2013-06-27 15:29:00,
2013-06-27 11:34:00,73.0,70.3,29.81,NE,40,0.0,2.0,91,0.00,,,0.00,meteohub,2013-06-27 15:34:00,
2013-06-27 11:39:00,73.6,70.5,29.81,NE,54,1.0,2.0,90,0.00,,,0.00,meteohub,2013-06-27 15:39:00,
2013-06-27 11:44:00,73.6,70.2,29.81,ENE,64,1.0,2.0,89,0.00,,,0.00,meteohub,2013-06-27 15:44:00,
2013-06-27 11:49:00,73.8,70.3,29.81,ENE,64,1.0,2.0,89,0.00,,,0.00,meteohub,2013-06-27 15:49:00,
2013-06-27 11:54:00,73.9,70.5,29.81,ENE,65,0.0,2.0,89,0.00,,,0.00,meteohub,2013-06-27 15:54:00,
2013-06-27 11:59:00,74.3,70.5,29.81,SW,219,0.0,2.0,88,0.00,,,0.00,meteohub,2013-06-27 15:59:00,
2013-06-27 12:04:00,74.7,70.5,29.81,SW,219,0.0,2.0,87,0.00,,,0.00,meteohub,2013-06-27 16:04:00,
2013-06-27 12:09:00,74.8,70.7,29.81,SW,219,0.0,2.0,87,0.00,,,0.00,meteohub,2013-06-27 16:09:00,
2013-06-27 12:14:00,75.0,70.5,29.81,SW,219,0.0,2.0,86,0.00,,,0.00,meteohub,2013-06-27 16:14:00,
2013-06-27 12:19:00,75.6,71.1,29.80,SW,217,0.0,2.0,86,0.00,,,0.00,meteohub,2013-06-27 16:19:00,
2013-06-27 12:24:00,75.7,70.5,29.80,ENE,78,1.0,1.0,84,0.00,,,0.00,meteohub,2013-06-27 16:24:00,
2013-06-27 12:29:00,75.9,70.7,29.80,NE,40,0.0,2.0,84,0.00,,,0.00,meteohub,2013-06-27 16:29:00,
2013-06-27 12:34:00,76.3,71.1,29.80,ENE,57,0.0,2.0,84,0.00,,,0.00,meteohub,2013-06-27 16:34:00,
2013-06-27 12:39:00,76.6,71.8,29.80,ENE,57,0.0,3.0,85,0.00,,,0.00,meteohub,2013-06-27 16:39:00,
2013-06-27 12:44:00,77.0,72.1,29.80,NE,53,1.0,3.0,85,0.00,,,0.00,meteohub,2013-06-27 16:44:00,
2013-06-27 12:49:00,77.4,71.4,29.79,NE,53,0.0,3.0,82,0.00,,,0.00,meteohub,2013-06-27 16:49:00,
2013-06-27 12:54:00,77.7,71.8,29.80,NE,53,0.0,3.0,82,0.00,,,0.00,meteohub,2013-06-27 16:54:00,
2013-06-27 12:59:00,77.9,71.6,29.79,South,188,0.0,3.0,81,0.00,,,0.00,meteohub,2013-06-27 16:59:00,
2013-06-27 13:04:00,78.3,72.0,29.79,South,190,0.0,2.0,81,0.00,,,0.00,meteohub,2013-06-27 17:04:00,
2013-06-27 13:10:00,78.4,71.8,29.78,WSW,254,1.0,2.0,80,0.00,,,0.00,meteohub,2013-06-27 17:10:00,
2013-06-27 13:15:00,78.8,72.5,29.79,NE,55,0.0,3.0,81,0.00,,,0.00,meteohub,2013-06-27 17:15:00,
2013-06-27 13:20:00,79.0,72.3,29.79,NE,55,0.0,3.0,80,0.00,,,0.00,meteohub,2013-06-27 17:20:00,
2013-06-27 13:25:00,79.2,71.2,29.79,SSW,200,0.0,3.0,77,0.00,,,0.00,meteohub,2013-06-27 17:25:00,
2013-06-27 13:30:00,79.2,71.8,29.79,WSW,249,1.0,2.0,78,0.00,,,0.00,meteohub,2013-06-27 17:30:00,
2013-06-27 13:35:00,79.0,71.6,29.78,WSW,248,0.0,3.0,78,0.00,,,0.00,meteohub,2013-06-27 17:35:00,
2013-06-27 13:40:00,79.2,72.1,29.78,WSW,248,0.0,3.0,79,0.00,,,0.00,meteohub,2013-06-27 17:40:00,
2013-06-27 13:45:00,79.3,72.0,29.78,WSW,248,0.0,2.0,78,0.00,,,0.00,meteohub,2013-06-27 17:45:00,
2013-06-27 13:50:00,79.5,71.6,29.77,NE,46,0.0,1.0,77,0.00,,,0.00,meteohub,2013-06-27 17:50:00,
2013-06-27 13:55:00,79.5,71.6,29.78,SW,219,2.0,3.0,77,0.00,,,0.00,meteohub,2013-06-27 17:55:00,
2013-06-27 14:00:00,79.3,72.0,29.78,NE,40,0.0,3.0,78,0.00,,,0.00,meteohub,2013-06-27 18:00:00,
2013-06-27 14:05:00,79.2,71.2,29.78,West,275,0.0,3.0,77,0.00,,,0.00,meteohub,2013-06-27 18:05:00,
2013-06-27 14:10:00,79.2,71.8,29.77,NNE,32,0.0,3.0,78,0.00,,,0.00,meteohub,2013-06-27 18:10:00,
2013-06-27 14:15:00,79.2,72.1,29.77,NE,35,0.0,3.0,79,0.00,,,0.00,meteohub,2013-06-27 18:15:00,
2013-06-27 14:20:00,79.3,72.3,29.77,NE,51,0.0,2.0,79,0.00,,,0.00,meteohub,2013-06-27 18:20:00,
2013-06-27 14:25:00,79.3,72.0,29.77,NNE,22,1.0,4.0,78,0.00,,,0.00,meteohub,2013-06-27 18:25:00,
2013-06-27 14:30:00,79.3,72.3,29.76,ENE,72,0.0,4.0,79,0.01,,,0.01,meteohub,2013-06-27 18:30:00,
2013-06-27 14:35:00,79.5,72.5,29.76,ENE,72,0.0,4.0,79,0.01,,,0.01,meteohub,2013-06-27 18:35:00,
2013-06-27 14:40:00,79.9,72.9,29.76,ENE,72,0.0,2.0,79,0.01,,,0.01,meteohub,2013-06-27 18:40:00,
2013-06-27 14:45:00,80.2,72.7,29.76,NE,48,0.0,2.0,78,0.01,,,0.01,meteohub,2013-06-27 18:45:00,
2013-06-27 14:50:00,80.4,72.5,29.76,NNE,28,0.0,2.0,77,0.01,,,0.01,meteohub,2013-06-27 18:50:00,
2013-06-27 14:55:00,80.4,72.5,29.76,NNE,30,1.0,4.0,77,0.01,,,0.01,meteohub,2013-06-27 18:55:00,
2013-06-27 15:00:00,80.4,72.9,29.76,NNE,28,0.0,4.0,78,0.01,,,0.01,meteohub,2013-06-27 19:00:00,
2013-06-27 15:05:00,80.4,72.5,29.76,North,355,0.0,4.0,77,0.01,,,0.01,meteohub,2013-06-27 19:05:00,
2013-06-27 15:10:00,80.4,72.5,29.76,West,265,0.0,3.0,77,0.01,,,0.01,meteohub,2013-06-27 19:10:00,
2013-06-27 15:15:00,80.4,72.5,29.75,ENE,59,2.0,2.0,77,0.01,,,0.01,meteohub,2013-06-27 19:15:00,
2013-06-27 15:20:00,80.4,72.1,29.76,East,96,1.0,4.0,76,0.01,,,0.01,meteohub,2013-06-27 19:20:00,
2013-06-27 15:25:00,80.4,72.9,29.75,East,96,0.0,4.0,78,0.01,,,0.01,meteohub,2013-06-27 19:25:00,
2013-06-27 15:30:00,80.4,72.5,29.75,SW,223,0.0,4.0,77,0.00,,,0.01,meteohub,2013-06-27 19:30:00,
2013-06-27 15:35:00,80.6,72.7,29.75,SSE,160,0.0,4.0,77,0.00,,,0.01,meteohub,2013-06-27 19:35:00,
2013-06-27 15:41:00,80.4,72.5,29.75,SSE,160,0.0,4.0,77,0.00,,,0.01,meteohub,2013-06-27 19:41:00,
2013-06-27 15:46:00,80.4,73.2,29.75,SSE,160,0.0,3.0,79,0.00,,,0.01,meteohub,2013-06-27 19:46:00,
2013-06-27 15:51:00,80.6,73.4,29.75,SSE,159,0.0,0.0,79,0.00,,,0.01,meteohub,2013-06-27 19:51:00,
2013-06-27 15:56:00,80.6,73.0,29.75,SSE,159,0.0,0.0,78,0.00,,,0.01,meteohub,2013-06-27 19:56:00,
2013-06-27 16:01:00,80.6,72.7,29.75,SSE,159,0.0,0.0,77,0.00,,,0.01,meteohub,2013-06-27 20:01:00,
2013-06-27 16:06:00,80.6,72.7,29.74,SSE,159,0.0,0.0,77,0.00,,,0.01,meteohub,2013-06-27 20:06:00,
2013-06-27 16:11:00,80.6,72.7,29.74,SSE,159,0.0,0.0,77,0.00,,,0.01,meteohub,2013-06-27 20:11:00,
2013-06-27 16:16:00,80.6,72.7,29.74,SSE,159,0.0,0.0,77,0.00,,,0.01,meteohub,2013-06-27 20:16:00,
2013-06-27 16:21:00,80.4,72.9,29.74,SE,134,0.0,1.0,78,0.00,,,0.01,meteohub,2013-06-27 20:21:00,
2013-06-27 16:26:00,80.1,73.0,29.74,NE,53,0.0,2.0,79,0.00,,,0.01,meteohub,2013-06-27 20:26:00,
2013-06-27 16:31:00,79.5,72.5,29.73,NNE,23,0.0,2.0,79,0.00,,,0.01,meteohub,2013-06-27 20:31:00,
2013-06-27 16:36:00,79.2,72.5,29.73,NE,41,0.0,2.0,80,0.00,,,0.01,meteohub,2013-06-27 20:36:00,
2013-06-27 16:41:00,79.0,72.7,29.75,SSW,193,5.0,5.0,81,0.00,,,0.01,meteohub,2013-06-27 20:41:00,
2013-06-27 16:46:00,77.2,71.2,29.75,SW,219,3.0,8.0,82,0.10,,,0.11,meteohub,2013-06-27 20:46:00,
2013-06-27 16:51:00,75.4,70.9,29.75,NNE,32,2.0,8.0,86,0.49,,,0.50,meteohub,2013-06-27 20:51:00,
2013-06-27 16:56:00,73.8,69.6,29.74,NNE,24,0.0,8.0,87,0.75,,,0.76,meteohub,2013-06-27 20:56:00,
2013-06-27 17:01:00,72.9,69.8,29.74,NNE,24,0.0,4.0,90,0.98,,,0.99,meteohub,2013-06-27 21:01:00,
2013-06-27 17:06:00,72.5,69.8,29.74,NNE,24,0.0,4.0,91,0.99,,,1.00,meteohub,2013-06-27 21:06:00,
2013-06-27 17:11:00,72.3,69.8,29.74,NNE,24,0.0,3.0,92,0.99,,,1.00,meteohub,2013-06-27 21:11:00,
2013-06-27 17:16:00,72.1,70.0,29.74,NNE,24,0.0,1.0,93,0.99,,,1.00,meteohub,2013-06-27 21:16:00,
2013-06-27 17:21:00,72.1,70.0,29.74,NNE,24,0.0,1.0,93,1.00,,,1.01,meteohub,2013-06-27 21:21:00,
2013-06-27 17:26:00,72.1,70.0,29.74,NNE,24,0.0,0.0,93,1.01,,,1.02,meteohub,2013-06-27 21:26:00,
2013-06-27 17:32:00,72.1,70.0,29.74,NNE,31,0.0,0.0,93,1.01,,,1.02,meteohub,2013-06-27 21:32:00,